Date,TemperatureHighF,TemperatureAvgF,TemperatureLowF,DewpointHighF,DewpointAvgF,DewpointLowF,HumidityHigh,HumidityAvg,HumidityLow,PressureMaxIn,PressureMinIn,WindSpeedMaxMPH,WindSpeedAvgMPH,GustSpeedMaxMPH,PrecipitationSumIn
2013-2-1,67.6,55.1,45.5,45.7,37.7,26.8,76,55,23,30.36,30.22,11,2,14,0.00
2013-2-2,71.6,56.3,46.0,48.9,42.5,27.3,82,63,21,30.32,30.15,12,2,13,0.00
2013-2-3,70.5,55.3,43.5,56.1,48.8,41.9,97,80,58,30.21,30.08,10,1,16,0.00
2013-2-4,68.5,54.2,45.0,53.6,44.6,36.1,96,74,33,30.15,30.04,8,1,12,0.01
2013-2-5,75.6,59.5,45.9,56.5,49.1,42.6,92,71,43,30.09,29.99,12,1,12,0.00
2013-2-6,77.4,67.1,59.2,63.1,59.7,56.1,93,78,56,30.10,30.01,7,1,9,0.00
2013-2-7,80.1,69.3,62.4,67.1,63.9,59.0,96,84,55,30.04,29.86,18,4,23,0.10
2013-2-8,73.9,65.4,57.7,66.7,61.3,55.9,96,87,68,30.08,29.89,12,2,14,0.00
2013-2-9,76.6,63.5,54.5,59.9,55.4,52.0,97,77,45,30.19,30.06,11,2,14,0.01
2013-2-10,80.4,68.8,60.6,64.4,60.3,55.4,89,75,54,30.23,30.11,10,2,14,0.00
2013-2-11,81.3,70.6,63.7,68.2,64.3,60.4,93,81,62,30.18,30.06,15,3,17,0.00
2013-2-12,80.8,71.9,66.4,70.9,68.2,64.6,96,89,71,30.08,29.93,16,4,25,0.00
2013-2-13,78.6,69.8,57.9,72.9,67.5,55.6,98,93,80,29.98,29.83,20,4,24,0.65
2013-2-14,63.9,60.2,58.1,61.0,59.0,57.2,98,96,88,30.05,29.91,7,1,8,0.28
2013-2-15,68.0,58.1,54.1,57.7,54.1,51.3,98,87,63,30.09,29.95,8,1,8,0.02
2013-2-16,66.9,57.1,49.8,54.1,47.1,35.1,93,70,48,30.14,29.95,11,3,18,0.00
2013-2-17,53.2,46.4,39.0,36.9,27.7,19.0,76,49,34,30.35,30.14,11,3,15,0.00
2013-2-18,68.2,51.8,36.7,50.7,38.9,28.0,84,64,37,30.37,30.19,10,2,14,0.00
2013-2-19,75.9,64.4,52.5,61.9,56.7,49.6,95,77,53,30.21,30.07,14,2,18,0.00
2013-2-20,76.5,64.5,58.5,64.6,60.0,53.1,98,86,64,30.11,30.00,8,1,9,0.01
2013-2-21,81.3,67.4,58.3,66.9,61.5,53.1,95,82,60,30.10,29.97,9,2,10,0.00
2013-2-22,81.7,71.0,62.2,70.0,66.2,61.2,98,86,64,30.05,29.97,14,2,16,0.01
2013-2-23,77.7,71.7,68.2,72.1,69.4,66.9,98,93,82,29.99,29.88,17,4,22,0.00
2013-2-24,78.4,70.8,67.8,71.8,68.8,66.9,99,94,79,29.94,29.86,14,2,17,0.00
2013-2-25,82.8,73.7,67.6,72.0,69.2,66.7,98,87,62,29.88,29.75,14,2,18,0.00
2013-2-26,75.0,70.8,65.7,72.0,67.1,60.8,97,88,73,29.87,29.68,17,4,21,0.36
2013-2-27,70.2,64.2,58.5,61.9,56.9,52.7,92,78,62,29.98,29.86,8,2,11,0.00
2013-2-28,71.8,62.5,54.1,57.6,53.4,48.0,93,73,56,30.00,29.90,12,2,15,0.00